Portada
METAR-TAF:

METAR-TAF

Aeroports :

Kirkwall, Escòcia

latitud: 58-57N, longitud: 002-54W, altitud: 21 m

Observació

L'informe es va fer fa 32 minuts, a les 08:20 UTC
Vent 14 kt del Sud/Sud-Oest
Temperatura 14°C
Humitat 82%
Pressió 1009 hPa
Visibilitat 10 km o més
Escasses núvols a una alçada de 1200 ft

METAR: EGPA 220820Z 20014KT 9999 FEW012 14/11 Q1009

Hora: 09:52 (08:52 UTC)

Pronòstic

L'informe es va fer fa 52 minuts, a les 08:00 UTC
Pronòstic vàlid del 22 a les 09 UTC al 22 a les 18 UTC
Vent 9 kt del Sud/Sud-Oest
Visibilitat 10 km o més
Núvols disperses a una alçada de 1800 ft
Temporalment
l' 22 a les 09 UTC al 22 a les 15 UTC
Vent 16 kt del Sud amb ràfegues de 26 kt
Probabilitat 40% :
Temporalment
l' 22 a les 15 UTC al 22 a les 18 UTC
Visibilitat: 7000 m
xàfecs de pluja

TAF: EGPA 220800Z 2209/2218 20009KT 9999 SCT018 TEMPO 2209/2215 19016G26KT PROB40 TEMPO 2215/2218 7000 SHRA

Observacions i pronòstics meteorològics de més de 4000 aeroports (METAR i TAF).

Les estacions disponibles són els punts grocs i vermells al mapa.

Posi el ratolí al punt desitjat per veure el nom de l'estació.

Feu clic per veure les observacions i els pronòstics meteorològics.

Per canviar el mapa: feu clic els botons verds amb una creu de color negre per apropar; al botó verd amb un guió per allunyar la imatge; o en les fletxes verdes per a mapes adjacents.


METAR-TAF: